createdAt,value
2022-12-01T00:01:09.346Z,20.98
2022-12-01T00:03:36.368Z,22.60
2022-12-01T00:06:09.986Z,21.92
2022-12-01T00:08:37.125Z,18.73
2022-12-01T00:11:08.903Z,18.40
2022-12-01T00:13:36.848Z,17.90
2022-12-01T00:16:13.936Z,19.27
2022-12-01T00:18:41.023Z,22.63
2022-12-01T00:21:14.405Z,19.60
2022-12-01T00:23:44.770Z,21.30
2022-12-01T00:26:11.362Z,19.27
2022-12-01T00:28:37.914Z,21.27
2022-12-01T00:31:10.419Z,19.15
2022-12-01T00:33:37.002Z,19.77
2022-12-01T00:36:04.249Z,20.73
2022-12-01T00:38:31.650Z,19.38
2022-12-01T00:40:58.342Z,20.88
2022-12-01T00:43:25.057Z,19.92
2022-12-01T00:45:51.796Z,21.33
2022-12-01T00:48:18.710Z,21.13
2022-12-01T00:50:45.383Z,19.55
2022-12-01T00:53:11.983Z,21.08
2022-12-01T00:55:40.179Z,21.08
2022-12-01T00:58:07.572Z,22.25
2022-12-01T01:00:34.688Z,19.17
2022-12-01T01:03:01.567Z,19.55
2022-12-01T01:05:28.137Z,21.58
2022-12-01T01:07:54.824Z,21.42
2022-12-01T01:10:22.708Z,20.25
2022-12-01T01:12:49.243Z,18.33
2022-12-01T01:15:16.032Z,18.88
2022-12-01T01:17:42.615Z,21.75
2022-12-01T01:20:09.786Z,19.75
2022-12-01T01:22:36.327Z,19.63
2022-12-01T01:25:02.935Z,20.65
2022-12-01T01:27:29.532Z,19.17
2022-12-01T01:29:56.115Z,19.38
2022-12-01T01:32:22.690Z,18.95
2022-12-01T01:34:49.239Z,19.85
2022-12-01T01:37:15.793Z,21.55
2022-12-01T01:39:42.351Z,19.02
2022-12-01T01:42:13.612Z,19.98
2022-12-01T01:44:54.453Z,20.52
2022-12-01T01:47:27.059Z,19.65
2022-12-01T01:49:55.172Z,20.00
2022-12-01T01:52:22.505Z,20.80
2022-12-01T01:54:51.698Z,21.73
2022-12-01T01:57:24.398Z,21.38
2022-12-01T01:59:55.872Z,21.10
2022-12-01T02:02:22.474Z,19.48
2022-12-01T02:04:52.931Z,20.45
2022-12-01T02:07:20.621Z,22.67
2022-12-01T02:09:47.492Z,22.38
2022-12-01T02:12:29.248Z,21.38
2022-12-01T02:15:32.774Z,23.85
2022-12-01T02:18:17.528Z,19.83
2022-12-01T02:21:08.635Z,19.63
2022-12-01T02:23:44.649Z,21.60
2022-12-01T02:26:29.703Z,23.38
2022-12-01T02:29:17.874Z,22.23
2022-12-01T02:31:58.514Z,21.98
2022-12-01T02:34:40.327Z,23.23
2022-12-01T02:37:12.787Z,23.85
2022-12-01T02:39:48.941Z,24.27
2022-12-01T02:42:54.396Z,21.27
2022-12-01T02:45:27.464Z,23.90
2022-12-01T02:47:56.397Z,22.02
2022-12-01T02:50:24.142Z,23.13
2022-12-01T02:52:50.754Z,23.67
2022-12-01T02:55:17.471Z,23.70
2022-12-01T02:57:44.046Z,22.20
2022-12-01T03:00:13.528Z,22.83
2022-12-01T03:02:52.855Z,23.55
2022-12-01T03:05:29.180Z,20.35
2022-12-01T03:07:55.722Z,21.75
2022-12-01T03:10:34.547Z,24.10
2022-12-01T03:13:08.793Z,24.02
2022-12-01T03:16:01.343Z,21.45
2022-12-01T03:18:51.035Z,21.25
2022-12-01T03:21:26.583Z,23.50
2022-12-01T03:23:56.577Z,22.65
2022-12-01T03:26:24.510Z,22.80
2022-12-01T03:29:03.839Z,22.58
2022-12-01T03:31:33.650Z,21.30
2022-12-01T03:34:14.219Z,22.27
2022-12-01T03:36:48.251Z,21.50
2022-12-01T03:39:20.035Z,24.80
2022-12-01T03:42:18.631Z,21.95
2022-12-01T03:44:49.077Z,27.38
2022-12-01T03:47:22.275Z,25.48
2022-12-01T03:49:51.266Z,25.63
2022-12-01T03:52:45.921Z,25.30
2022-12-01T03:55:12.410Z,23.13
2022-12-01T03:57:57.112Z,27.35
2022-12-01T04:00:24.020Z,24.73
2022-12-01T04:02:58.268Z,26.10
2022-12-01T04:05:25.994Z,27.63
2022-12-01T04:07:53.476Z,28.07
2022-12-01T04:10:20.245Z,27.60
2022-12-01T04:12:46.995Z,24.45
2022-12-01T04:15:14.508Z,26.52
2022-12-01T04:17:45.144Z,24.75
2022-12-01T04:20:15.827Z,22.35
2022-12-01T04:22:42.419Z,25.85
2022-12-01T04:25:09.819Z,23.98
2022-12-01T04:27:36.659Z,25.70
2022-12-01T04:30:05.431Z,25.50
2022-12-01T04:32:32.048Z,26.25
2022-12-01T04:34:58.650Z,27.60
2022-12-01T04:37:25.196Z,29.65
2022-12-01T04:39:52.099Z,30.45
2022-12-01T04:42:18.802Z,34.30
2022-12-01T04:44:45.403Z,31.55
2022-12-01T04:47:11.983Z,32.70
2022-12-01T04:49:38.583Z,30.17
2022-12-01T04:52:05.290Z,31.77
2022-12-01T04:54:31.831Z,35.13
2022-12-01T04:56:58.454Z,32.83
2022-12-01T04:59:25.011Z,39.97
2022-12-01T05:01:51.636Z,37.33
2022-12-01T05:04:18.323Z,38.80
2022-12-01T05:06:45.146Z,35.78
2022-12-01T05:09:17.655Z,35.97
2022-12-01T05:11:44.835Z,38.35
2022-12-01T05:14:11.390Z,37.42
2022-12-01T05:16:37.999Z,39.03
2022-12-01T05:19:24.688Z,38.42
2022-12-01T05:21:51.652Z,40.55
2022-12-01T05:24:19.662Z,33.85
2022-12-01T05:26:46.245Z,34.78
2022-12-01T05:29:13.405Z,35.22
2022-12-01T05:31:40.312Z,37.03
2022-12-01T05:34:07.811Z,35.58
2022-12-01T05:36:34.425Z,35.47
2022-12-01T05:39:01.111Z,37.80
2022-12-01T05:41:27.788Z,39.72
2022-12-01T05:43:54.394Z,37.40
2022-12-01T05:46:20.990Z,34.60
2022-12-01T05:48:47.574Z,36.95
2022-12-01T05:51:15.478Z,39.30
2022-12-01T05:53:42.678Z,36.05
2022-12-01T05:56:09.516Z,34.88
2022-12-01T05:58:36.339Z,36.15
2022-12-01T06:01:03.316Z,36.10
2022-12-01T06:03:29.978Z,35.30
2022-12-01T06:05:56.532Z,37.42
2022-12-01T06:08:23.093Z,36.45
2022-12-01T06:10:49.662Z,34.03
2022-12-01T06:13:16.263Z,36.15
2022-12-01T06:15:42.857Z,33.47
2022-12-01T06:18:09.668Z,34.47
2022-12-01T06:20:36.285Z,34.75
2022-12-01T06:23:03.450Z,34.13
2022-12-01T06:25:30.022Z,33.13
2022-12-01T06:27:57.857Z,32.88
2022-12-01T06:30:24.597Z,33.83
2022-12-01T06:32:51.158Z,33.92
2022-12-01T06:35:17.859Z,33.03
2022-12-01T06:37:44.490Z,37.42
2022-12-01T06:40:11.833Z,33.50
2022-12-01T06:42:38.373Z,35.60
2022-12-01T06:45:05.504Z,33.45
2022-12-01T06:47:32.239Z,33.40
2022-12-01T06:49:58.809Z,33.35
2022-12-01T06:52:25.375Z,35.28
2022-12-01T06:54:51.930Z,34.92
2022-12-01T06:57:18.858Z,33.25
2022-12-01T06:59:45.758Z,36.20
2022-12-01T07:02:12.916Z,34.33
2022-12-01T07:04:39.488Z,35.15
2022-12-01T07:07:06.493Z,30.98
2022-12-01T07:09:33.213Z,34.95
2022-12-01T07:11:59.921Z,32.13
2022-12-01T07:14:27.210Z,33.78
2022-12-01T07:16:54.060Z,37.47
2022-12-01T07:19:20.760Z,36.72
2022-12-01T07:21:47.371Z,32.65
2022-12-01T07:24:14.066Z,33.28
2022-12-01T07:26:41.378Z,33.55
2022-12-01T07:29:11.538Z,33.08
2022-12-01T07:31:38.745Z,33.15
2022-12-01T07:34:05.801Z,33.38
2022-12-01T07:36:32.427Z,33.25
2022-12-01T07:38:59.022Z,30.38
2022-12-01T07:41:25.674Z,34.00
2022-12-01T07:43:52.386Z,34.88
2022-12-01T07:46:23.512Z,34.13
2022-12-01T07:48:51.616Z,32.10
2022-12-01T07:51:18.657Z,35.17
2022-12-01T07:53:46.905Z,32.88
2022-12-01T07:56:13.995Z,33.78
2022-12-01T07:58:40.685Z,35.42
2022-12-01T08:01:09.142Z,32.03
2022-12-01T08:06:03.337Z,29.98
2022-12-01T08:08:32.311Z,32.33
2022-12-01T08:11:05.176Z,32.08
2022-12-01T08:13:31.840Z,31.77
2022-12-01T08:15:59.102Z,30.55
2022-12-01T08:18:25.785Z,32.63
2022-12-01T08:20:57.076Z,33.83
2022-12-01T08:23:23.753Z,32.67
2022-12-01T08:25:54.976Z,31.65
2022-12-01T08:28:21.683Z,30.92
2022-12-01T08:30:48.317Z,32.20
2022-12-01T08:33:14.925Z,30.60
2022-12-01T08:35:41.481Z,32.45
2022-12-01T08:38:09.420Z,31.08
2022-12-01T08:40:36.336Z,30.85
2022-12-01T08:43:02.962Z,30.08
2022-12-01T08:45:29.569Z,34.17
2022-12-01T08:47:58.946Z,29.85
2022-12-01T08:50:27.035Z,29.00
2022-12-01T08:52:53.930Z,31.67
2022-12-01T08:55:21.944Z,31.23
2022-12-01T08:57:48.533Z,30.45
2022-12-01T09:00:16.039Z,32.10
2022-12-01T09:02:42.718Z,30.08
2022-12-01T09:05:09.522Z,30.40
2022-12-01T09:07:36.099Z,31.35
2022-12-01T09:10:02.751Z,29.95
2022-12-01T09:12:29.914Z,29.25
2022-12-01T09:14:56.630Z,30.42
2022-12-01T09:17:23.748Z,31.48
2022-12-01T09:19:50.655Z,43.10
2022-12-01T09:22:18.711Z,36.13
2022-12-01T09:24:45.244Z,36.83
2022-12-01T09:27:11.914Z,39.25
2022-12-01T09:29:38.547Z,38.17
2022-12-01T09:32:05.223Z,35.17
2022-12-01T09:34:31.958Z,32.53
2022-12-01T09:36:58.715Z,36.50
2022-12-01T09:39:25.866Z,35.30
2022-12-01T09:42:09.047Z,38.20
2022-12-01T09:44:46.200Z,31.73
2022-12-01T09:47:24.312Z,35.78
2022-12-01T09:49:54.535Z,39.72
2022-12-01T09:52:22.334Z,37.50
2022-12-01T09:54:49.457Z,37.40
2022-12-01T09:57:36.589Z,37.30
2022-12-01T10:00:11.631Z,40.08
2022-12-01T10:02:46.704Z,38.95
2022-12-01T10:05:22.196Z,39.10
2022-12-01T10:07:55.288Z,42.47
2022-12-01T10:10:28.846Z,37.33
2022-12-01T10:12:55.434Z,35.78
2022-12-01T10:15:49.332Z,37.00
2022-12-01T10:18:34.232Z,34.63
2022-12-01T10:21:28.920Z,37.13
2022-12-01T10:24:02.617Z,36.28
2022-12-01T10:26:47.549Z,37.10
2022-12-01T10:29:22.607Z,41.70
2022-12-01T10:31:54.259Z,40.08
2022-12-01T10:34:41.657Z,39.63
2022-12-01T10:37:15.520Z,46.78
2022-12-01T10:39:44.440Z,37.50
2022-12-01T10:42:25.139Z,35.70
2022-12-01T10:44:54.834Z,42.75
2022-12-01T10:47:24.724Z,41.25
2022-12-01T10:49:52.414Z,33.33
2022-12-01T10:52:34.398Z,34.55
2022-12-01T10:55:02.062Z,33.28
2022-12-01T10:57:30.666Z,30.83
2022-12-01T11:02:26.693Z,31.42
2022-12-01T11:05:02.132Z,28.42
2022-12-01T11:07:36.159Z,28.50
2022-12-01T11:10:24.362Z,31.00
2022-12-01T11:13:03.487Z,30.45
2022-12-01T11:15:34.539Z,30.45
2022-12-01T11:18:07.931Z,29.98
2022-12-01T11:20:36.218Z,50.35
2022-12-01T11:23:24.639Z,32.65
2022-12-01T11:28:30.634Z,28.02
2022-12-01T11:31:03.910Z,29.20
2022-12-01T11:33:33.443Z,29.70
2022-12-01T11:36:00.022Z,28.63
2022-12-01T11:38:34.661Z,28.42
2022-12-01T11:41:01.325Z,27.58
2022-12-01T11:43:31.550Z,26.80
2022-12-01T11:46:00.909Z,29.45
2022-12-01T11:48:29.627Z,28.55
2022-12-01T11:51:15.579Z,29.02
2022-12-01T11:53:43.367Z,27.60
2022-12-01T11:56:12.922Z,29.42
2022-12-01T11:58:39.547Z,27.48
2022-12-01T12:01:31.597Z,26.58
2022-12-01T12:04:35.491Z,28.67
2022-12-01T12:07:41.273Z,26.13
2022-12-01T12:10:22.881Z,28.48
2022-12-01T12:13:06.453Z,27.25
2022-12-01T12:15:42.507Z,24.30
2022-12-01T12:18:39.551Z,26.77
2022-12-01T12:21:21.788Z,28.30
2022-12-01T12:23:58.423Z,27.95
2022-12-01T12:26:37.738Z,25.92
2022-12-01T12:29:38.784Z,24.60
2022-12-01T12:32:24.036Z,24.52
2022-12-01T12:34:54.245Z,26.83
2022-12-01T12:37:20.759Z,26.33
2022-12-01T12:40:05.156Z,26.33
2022-12-01T12:42:38.493Z,25.50
2022-12-01T12:45:32.321Z,23.55
2022-12-01T12:48:17.186Z,24.75
2022-12-01T12:50:52.061Z,24.95
2022-12-01T12:53:22.302Z,23.77
2022-12-01T12:55:51.580Z,25.50
2022-12-01T12:58:24.153Z,24.73
2022-12-01T13:01:04.683Z,23.40
2022-12-01T13:03:41.996Z,23.67
2022-12-01T13:06:39.461Z,22.17
2022-12-01T13:09:11.052Z,24.10
2022-12-01T13:11:47.038Z,23.23
2022-12-01T13:14:32.204Z,23.23
2022-12-01T13:17:06.675Z,22.83
2022-12-01T13:19:36.114Z,25.33
2022-12-01T13:22:04.218Z,23.73
2022-12-01T13:24:31.315Z,21.92
2022-12-01T13:27:01.390Z,23.00
2022-12-01T13:29:43.678Z,22.48
2022-12-01T13:32:34.930Z,23.23
2022-12-01T13:35:06.428Z,21.60
2022-12-01T13:37:36.026Z,21.95
2022-12-01T13:40:29.814Z,21.15
2022-12-01T13:43:05.481Z,21.70
2022-12-01T13:45:40.406Z,20.95
2022-12-01T13:48:29.912Z,21.52
2022-12-01T13:50:59.463Z,20.05
2022-12-01T13:53:39.671Z,19.95
2022-12-01T13:56:28.067Z,24.35
2022-12-01T13:58:55.079Z,19.67
2022-12-01T14:01:22.156Z,22.33
2022-12-01T14:04:01.296Z,21.63
2022-12-01T14:06:46.714Z,22.23
2022-12-01T14:09:33.027Z,24.02
2022-12-01T14:12:02.663Z,32.83
2022-12-01T14:14:35.278Z,22.45
2022-12-01T14:17:03.290Z,23.83
2022-12-01T14:19:52.173Z,21.13
2022-12-01T14:22:35.316Z,22.58
2022-12-01T14:25:05.326Z,23.80
2022-12-01T14:27:42.200Z,22.92
2022-12-01T14:30:41.251Z,23.33
2022-12-01T14:33:45.017Z,22.83
2022-12-01T14:36:23.361Z,19.85
2022-12-01T14:38:52.816Z,22.52
2022-12-01T14:41:27.272Z,22.02
2022-12-01T14:44:03.940Z,21.05
2022-12-01T14:46:43.305Z,20.27
2022-12-01T14:49:13.456Z,21.73
2022-12-01T14:51:43.844Z,21.80
2022-12-01T14:54:18.006Z,21.33
2022-12-01T14:56:47.508Z,24.60
2022-12-01T14:59:20.091Z,24.65
2022-12-01T15:01:49.564Z,25.70
2022-12-01T15:04:16.343Z,29.17
2022-12-01T15:06:43.062Z,27.90
2022-12-01T15:09:36.317Z,29.23
2022-12-01T15:12:07.442Z,28.10
2022-12-01T15:14:39.668Z,29.13
2022-12-01T15:17:08.907Z,26.80
2022-12-01T15:19:38.777Z,26.13
2022-12-01T15:22:12.114Z,29.17
2022-12-01T15:24:38.903Z,28.00
2022-12-01T15:27:29.515Z,28.77
2022-12-01T15:29:58.377Z,29.80
2022-12-01T15:32:25.081Z,28.10
2022-12-01T15:34:55.815Z,30.15
2022-12-01T15:37:25.034Z,27.70
2022-12-01T15:40:00.880Z,30.92
2022-12-01T15:42:39.610Z,27.42
2022-12-01T15:45:15.273Z,27.65
2022-12-01T15:47:43.490Z,31.83
2022-12-01T15:50:33.501Z,30.10
2022-12-01T15:53:03.474Z,29.42
2022-12-01T15:55:32.148Z,29.48
2022-12-01T15:57:59.545Z,25.60
2022-12-01T16:00:26.398Z,31.85
2022-12-01T16:02:55.508Z,29.88
2022-12-01T16:05:27.918Z,28.05
2022-12-01T16:10:41.429Z,30.80
2022-12-01T16:13:36.233Z,28.98
2022-12-01T16:16:28.453Z,27.58
2022-12-01T16:19:00.515Z,27.13
2022-12-01T16:21:27.568Z,27.80
2022-12-01T16:24:05.605Z,29.80
2022-12-01T16:26:33.298Z,28.80
2022-12-01T16:28:59.995Z,30.17
2022-12-01T16:31:27.302Z,29.40
2022-12-01T16:34:09.827Z,30.73
2022-12-01T16:36:49.051Z,31.05
2022-12-01T16:39:15.778Z,29.75
2022-12-01T16:41:44.877Z,30.65
2022-12-01T16:44:28.186Z,30.23
2022-12-01T16:46:55.418Z,30.80
2022-12-01T16:49:22.416Z,34.60
2022-12-01T16:51:55.954Z,32.63
2022-12-01T16:54:23.389Z,30.02
2022-12-01T16:56:50.007Z,30.83
2022-12-01T16:59:16.590Z,32.60
2022-12-01T17:01:43.206Z,33.75
2022-12-01T17:04:09.908Z,29.63
2022-12-01T17:06:38.350Z,28.20
2022-12-01T17:11:32.437Z,27.92
2022-12-01T17:13:59.042Z,30.83
2022-12-01T17:16:25.667Z,30.77
2022-12-01T17:18:52.419Z,32.03
2022-12-01T17:21:19.159Z,29.30
2022-12-01T17:23:45.754Z,28.98
2022-12-01T17:26:15.219Z,29.25
2022-12-01T17:28:41.836Z,31.42
2022-12-01T17:31:08.781Z,31.25
2022-12-01T17:33:36.238Z,32.85
2022-12-01T17:36:05.927Z,35.10
2022-12-01T17:38:36.636Z,29.17
2022-12-01T17:41:15.471Z,28.27
2022-12-01T17:43:42.607Z,24.95
2022-12-01T17:46:11.276Z,24.40
2022-12-01T17:48:45.360Z,23.35
2022-12-01T17:51:12.995Z,23.83
2022-12-01T17:53:40.435Z,23.07
2022-12-01T17:56:09.001Z,24.08
2022-12-01T17:58:35.966Z,24.42
2022-12-01T18:01:02.730Z,22.83
2022-12-01T18:03:29.354Z,25.33
2022-12-01T18:06:00.526Z,24.75
2022-12-01T18:08:30.057Z,22.48
2022-12-01T18:11:00.742Z,24.25
2022-12-01T18:13:27.283Z,21.02
2022-12-01T18:15:54.840Z,20.58
2022-12-01T18:18:22.120Z,21.00
2022-12-01T18:20:48.800Z,21.92
2022-12-01T18:23:15.342Z,25.05
2022-12-01T18:25:41.887Z,20.92
2022-12-01T18:28:10.899Z,21.35
2022-12-01T18:30:38.751Z,21.23
2022-12-01T18:33:06.609Z,22.75
2022-12-01T18:35:33.148Z,22.10
2022-12-01T18:37:59.684Z,22.48
2022-12-01T18:40:26.219Z,20.17
2022-12-01T18:42:52.796Z,20.83
2022-12-01T18:45:21.235Z,24.83
2022-12-01T18:47:48.341Z,23.17
2022-12-01T18:50:15.108Z,19.77
2022-12-01T18:52:41.783Z,21.02
2022-12-01T18:55:08.829Z,24.70
2022-12-01T18:57:35.679Z,19.95
2022-12-01T19:00:04.667Z,19.75
2022-12-01T19:02:31.267Z,20.90
2022-12-01T19:04:57.929Z,19.23
2022-12-01T19:07:29.525Z,22.17
2022-12-01T19:09:56.616Z,23.80
2022-12-01T19:12:23.263Z,23.77
2022-12-01T19:14:52.947Z,26.02
2022-12-01T19:17:19.995Z,25.67
2022-12-01T19:19:46.591Z,22.20
2022-12-01T19:22:13.135Z,21.65
2022-12-01T19:24:39.672Z,23.58
2022-12-01T19:27:06.320Z,22.65
2022-12-01T19:29:32.867Z,23.95
2022-12-01T19:31:59.628Z,23.05
2022-12-01T19:34:26.202Z,21.75
2022-12-01T19:36:53.700Z,23.35
2022-12-01T19:39:20.347Z,25.43
2022-12-01T19:41:46.934Z,23.55
2022-12-01T19:44:13.497Z,24.17
2022-12-01T19:46:40.183Z,26.35
2022-12-01T19:49:07.164Z,22.90
2022-12-01T19:51:35.862Z,21.23
2022-12-01T19:54:04.074Z,25.67
2022-12-01T19:56:31.626Z,23.63
2022-12-01T19:58:59.237Z,21.47
2022-12-01T20:01:26.485Z,21.43
2022-12-01T20:03:54.177Z,22.50
2022-12-01T20:06:25.813Z,21.90
2022-12-01T20:08:53.141Z,20.95
2022-12-01T20:11:19.822Z,22.45
2022-12-01T20:13:47.603Z,22.13
2022-12-01T20:16:20.345Z,21.60
2022-12-01T20:18:47.651Z,23.40
2022-12-01T20:21:20.601Z,22.83
2022-12-01T20:23:49.551Z,22.05
2022-12-01T20:26:18.086Z,22.02
2022-12-01T20:31:24.925Z,21.70
2022-12-01T20:33:53.387Z,24.75
2022-12-01T20:38:47.010Z,22.60
2022-12-01T20:41:14.183Z,22.58
2022-12-01T20:43:40.869Z,22.75
2022-12-01T20:46:07.822Z,23.00
2022-12-01T20:48:34.547Z,22.95
2022-12-01T20:51:02.875Z,22.15
2022-12-01T20:53:29.743Z,25.10
2022-12-01T20:55:56.369Z,22.33
2022-12-01T20:58:23.259Z,22.27
2022-12-01T21:00:49.959Z,22.52
2022-12-01T21:03:16.605Z,25.30
2022-12-01T21:05:43.871Z,22.63
2022-12-01T21:08:12.447Z,22.38
2022-12-01T21:10:42.564Z,22.23
2022-12-01T21:13:38.519Z,21.65
2022-12-01T21:16:13.714Z,22.55
2022-12-01T21:18:46.866Z,20.13
2022-12-01T21:21:22.610Z,24.25
2022-12-01T21:23:55.136Z,21.67
2022-12-01T21:26:21.763Z,19.65
2022-12-01T21:28:48.290Z,21.88
2022-12-01T21:31:15.629Z,22.30
2022-12-01T21:33:42.920Z,21.42
2022-12-01T21:36:16.102Z,19.35
2022-12-01T21:38:46.398Z,22.20
2022-12-01T21:41:29.422Z,22.83
2022-12-01T21:44:00.723Z,21.42
2022-12-01T21:46:27.817Z,20.85
2022-12-01T21:48:54.711Z,19.58
2022-12-01T21:51:23.233Z,21.80
2022-12-01T21:56:27.819Z,19.52
2022-12-01T21:58:57.804Z,21.25
2022-12-01T22:01:32.094Z,21.38
2022-12-01T22:04:18.857Z,21.42
2022-12-01T22:06:48.483Z,20.30
2022-12-01T22:09:19.039Z,22.13
2022-12-01T22:11:49.236Z,23.40
2022-12-01T22:14:24.707Z,22.65
2022-12-01T22:17:10.703Z,20.85
2022-12-01T22:19:44.259Z,21.63
2022-12-01T22:22:10.778Z,22.90
2022-12-01T22:24:48.037Z,22.70
2022-12-01T22:27:29.517Z,22.87
2022-12-01T22:29:58.890Z,22.73
2022-12-01T22:32:40.375Z,22.92
2022-12-01T22:35:09.907Z,27.08
2022-12-01T22:37:47.610Z,22.17
2022-12-01T22:40:33.811Z,24.02
2022-12-01T22:43:14.728Z,24.75
2022-12-01T22:45:42.125Z,33.17
2022-12-01T22:48:27.546Z,23.08
2022-12-01T22:50:54.817Z,24.25
2022-12-01T22:53:31.028Z,32.92
2022-12-01T22:56:00.754Z,37.95
2022-12-01T22:58:31.966Z,35.88
2022-12-01T23:01:03.101Z,27.98
2022-12-01T23:03:29.718Z,23.83
2022-12-01T23:05:57.176Z,23.73
2022-12-01T23:08:24.406Z,26.58
2022-12-01T23:10:51.110Z,26.23
2022-12-01T23:13:23.013Z,25.70
2022-12-01T23:15:51.505Z,24.63
2022-12-01T23:18:29.091Z,21.33
2022-12-01T23:20:57.565Z,22.35
2022-12-01T23:25:55.691Z,24.98
2022-12-01T23:28:22.494Z,24.77
2022-12-01T23:30:51.624Z,25.60
2022-12-01T23:33:30.165Z,23.90
2022-12-01T23:36:06.764Z,25.23
2022-12-01T23:38:38.978Z,23.05
2022-12-01T23:41:26.050Z,26.50
2022-12-01T23:43:54.215Z,25.75
2022-12-01T23:46:23.284Z,24.23
2022-12-01T23:48:56.614Z,22.17
2022-12-01T23:51:26.024Z,22.75
2022-12-01T23:53:53.836Z,24.38
2022-12-01T23:56:22.004Z,23.98
2022-12-01T23:58:49.367Z,21.05
